Bernardo, New Mexico
Current Conditions -  °F | °C
As of 6:35 PM on Saturday 25 Oct 2014 (Local Time) from KE80 Reporting Station
Clear Clear  
Wind Chill: 69°   Ceiling: Unl
Heat Index: 69°   Visibility: 10mi
Dew Point: 36°   Wind: 8mph
Humidity: 30%   Direction: 180°S
Pressure: 30.16"   Gusts: NA
Location:  34.4828°N, 106.804°W
Report Text: KE80 260035Z AUTO 18007KT 10SM CLR 20/02 A3016 RMK AO2 T02040022
Loading
Personal Weather Stations






























Interactive Weather Map
Tropical Storm Tracking
New forecast layout! Learn more

10-Day Weather Forecast

Advertisements
Track Severe Weather on mobile